sensor_id;sensor_type;location;lat;lon;timestamp;P1;durP1;ratioP1;P2;durP2;ratioP2
84862;SDS011;75117;43.224;76.776;2024-02-28T00:00:05;83.03;;;45.67;;
84862;SDS011;75117;43.224;76.776;2024-02-28T00:00:17;80.70;;;44.35;;
84862;SDS011;75117;43.224;76.776;2024-02-28T00:00:30;81.65;;;45.33;;
84862;SDS011;75117;43.224;76.776;2024-02-28T00:00:42;82.57;;;46.10;;
84862;SDS011;75117;43.224;76.776;2024-02-28T00:00:55;88.30;;;47.38;;
84862;SDS011;75117;43.224;76.776;2024-02-28T00:01:07;95.05;;;47.40;;
84862;SDS011;75117;43.224;76.776;2024-02-28T00:01:20;93.22;;;47.45;;
84862;SDS011;75117;43.224;76.776;2024-02-28T00:01:32;85.90;;;48.20;;
84862;SDS011;75117;43.224;76.776;2024-02-28T00:01:48;84.45;;;47.65;;
84862;SDS011;75117;43.224;76.776;2024-02-28T00:02:01;83.72;;;46.70;;
84862;SDS011;75117;43.224;76.776;2024-02-28T00:02:14;85.55;;;47.95;;
84862;SDS011;75117;43.224;76.776;2024-02-28T00:02:26;89.13;;;48.28;;
84862;SDS011;75117;43.224;76.776;2024-02-28T00:02:39;89.05;;;48.28;;
84862;SDS011;75117;43.224;76.776;2024-02-28T00:02:52;83.53;;;46.83;;
84862;SDS011;75117;43.224;76.776;2024-02-28T00:03:04;80.50;;;44.35;;
84862;SDS011;75117;43.224;76.776;2024-02-28T00:03:17;79.93;;;44.60;;
84862;SDS011;75117;43.224;76.776;2024-02-28T00:03:29;80.18;;;45.75;;
84862;SDS011;75117;43.224;76.776;2024-02-28T00:03:43;79.03;;;45.50;;
84862;SDS011;75117;43.224;76.776;2024-02-28T00:03:56;81.28;;;47.75;;
84862;SDS011;75117;43.224;76.776;2024-02-28T00:04:08;84.97;;;49.35;;
84862;SDS011;75117;43.224;76.776;2024-02-28T00:04:21;90.00;;;49.65;;
84862;SDS011;75117;43.224;76.776;2024-02-28T00:04:33;88.68;;;48.92;;
84862;SDS011;75117;43.224;76.776;2024-02-28T00:04:46;89.53;;;50.92;;
84862;SDS011;75117;43.224;76.776;2024-02-28T00:04:59;88.22;;;49.70;;
84862;SDS011;75117;43.224;76.776;2024-02-28T00:05:12;82.28;;;46.13;;
84862;SDS011;75117;43.224;76.776;2024-02-28T00:05:24;82.78;;;45.92;;
84862;SDS011;75117;43.224;76.776;2024-02-28T00:05:37;81.47;;;46.40;;
84862;SDS011;75117;43.224;76.776;2024-02-28T00:05:49;85.63;;;47.13;;
84862;SDS011;75117;43.224;76.776;2024-02-28T00:06:02;84.15;;;46.67;;
84862;SDS011;75117;43.224;76.776;2024-02-28T00:06:18;83.80;;;49.05;;
84862;SDS011;75117;43.224;76.776;2024-02-28T00:06:31;86.10;;;50.58;;
84862;SDS011;75117;43.224;76.776;2024-02-28T00:06:43;84.38;;;49.00;;
84862;SDS011;75117;43.224;76.776;2024-02-28T00:06:57;82.90;;;46.38;;
84862;SDS011;75117;43.224;76.776;2024-02-28T00:07:10;83.75;;;45.35;;
84862;SDS011;75117;43.224;76.776;2024-02-28T00:07:23;83.93;;;46.03;;
84862;SDS011;75117;43.224;76.776;2024-02-28T00:07:35;82.38;;;45.38;;
84862;SDS011;75117;43.224;76.776;2024-02-28T00:07:48;79.45;;;44.90;;
84862;SDS011;75117;43.224;76.776;2024-02-28T00:08:00;81.18;;;44.65;;
84862;SDS011;75117;43.224;76.776;2024-02-28T00:08:13;84.70;;;45.35;;
84862;SDS011;75117;43.224;76.776;2024-02-28T00:08:25;82.68;;;44.45;;
84862;SDS011;75117;43.224;76.776;2024-02-28T00:08:38;82.07;;;45.92;;
84862;SDS011;75117;43.224;76.776;2024-02-28T00:08:52;80.55;;;44.88;;
84862;SDS011;75117;43.224;76.776;2024-02-28T00:09:06;80.80;;;44.05;;
84862;SDS011;75117;43.224;76.776;2024-02-28T00:09:19;82.50;;;45.35;;
84862;SDS011;75117;43.224;76.776;2024-02-28T00:09:31;80.63;;;44.78;;
84862;SDS011;75117;43.224;76.776;2024-02-28T00:09:43;80.65;;;45.10;;
84862;SDS011;75117;43.224;76.776;2024-02-28T00:09:56;80.05;;;45.67;;
84862;SDS011;75117;43.224;76.776;2024-02-28T00:10:09;77.93;;;45.58;;
84862;SDS011;75117;43.224;76.776;2024-02-28T00:10:21;80.27;;;45.20;;
84862;SDS011;75117;43.224;76.776;2024-02-28T00:10:34;83.45;;;45.35;;
84862;SDS011;75117;43.224;76.776;2024-02-28T00:10:46;80.95;;;45.13;;
84862;SDS011;75117;43.224;76.776;2024-02-28T00:10:59;75.70;;;43.70;;
84862;SDS011;75117;43.224;76.776;2024-02-28T00:11:12;73.75;;;44.08;;
84862;SDS011;75117;43.224;76.776;2024-02-28T00:11:24;77.28;;;44.60;;
84862;SDS011;75117;43.224;76.776;2024-02-28T00:11:42;78.75;;;44.65;;
84862;SDS011;75117;43.224;76.776;2024-02-28T00:11:58;79.05;;;45.20;;
84862;SDS011;75117;43.224;76.776;2024-02-28T00:12:11;80.55;;;45.28;;
84862;SDS011;75117;43.224;76.776;2024-02-28T00:12:23;81.20;;;46.97;;
84862;SDS011;75117;43.224;76.776;2024-02-28T00:12:39;80.17;;;47.00;;
84862;SDS011;75117;43.224;76.776;2024-02-28T00:12:52;80.55;;;45.67;;
84862;SDS011;75117;43.224;76.776;2024-02-28T00:13:07;79.35;;;45.35;;
84862;SDS011;75117;43.224;76.776;2024-02-28T00:13:19;77.88;;;44.70;;
84862;SDS011;75117;43.224;76.776;2024-02-28T00:13:34;81.13;;;46.22;;
84862;SDS011;75117;43.224;76.776;2024-02-28T00:13:47;80.30;;;47.10;;
84862;SDS011;75117;43.224;76.776;2024-02-28T00:13:59;80.35;;;46.63;;
84862;SDS011;75117;43.224;76.776;2024-02-28T00:14:13;78.70;;;45.85;;
84862;SDS011;75117;43.224;76.776;2024-02-28T00:14:26;85.53;;;46.30;;
84862;SDS011;75117;43.224;76.776;2024-02-28T00:14:38;84.72;;;46.15;;
84862;SDS011;75117;43.224;76.776;2024-02-28T00:14:51;80.72;;;46.00;;
84862;SDS011;75117;43.224;76.776;2024-02-28T00:15:04;80.95;;;45.95;;
84862;SDS011;75117;43.224;76.776;2024-02-28T00:15:22;81.53;;;45.88;;
84862;SDS011;75117;43.224;76.776;2024-02-28T00:15:34;84.50;;;46.40;;
84862;SDS011;75117;43.224;76.776;2024-02-28T00:15:47;84.53;;;46.33;;
84862;SDS011;75117;43.224;76.776;2024-02-28T00:15:59;82.90;;;47.13;;
84862;SDS011;75117;43.224;76.776;2024-02-28T00:16:12;78.75;;;46.65;;
84862;SDS011;75117;43.224;76.776;2024-02-28T00:16:24;76.93;;;45.15;;
84862;SDS011;75117;43.224;76.776;2024-02-28T00:16:39;81.45;;;46.10;;
84862;SDS011;75117;43.224;76.776;2024-02-28T00:16:53;85.10;;;47.25;;
84862;SDS011;75117;43.224;76.776;2024-02-28T00:17:05;82.45;;;46.00;;
84862;SDS011;75117;43.224;76.776;2024-02-28T00:17:18;78.50;;;46.15;;
84862;SDS011;75117;43.224;76.776;2024-02-28T00:17:31;77.72;;;44.95;;
84862;SDS011;75117;43.224;76.776;2024-02-28T00:17:43;81.93;;;45.92;;
84862;SDS011;75117;43.224;76.776;2024-02-28T00:17:56;82.00;;;47.33;;
84862;SDS011;75117;43.224;76.776;2024-02-28T00:18:08;84.32;;;48.40;;
84862;SDS011;75117;43.224;76.776;2024-02-28T00:18:21;82.85;;;47.28;;
84862;SDS011;75117;43.224;76.776;2024-02-28T00:18:35;80.78;;;47.55;;
84862;SDS011;75117;43.224;76.776;2024-02-28T00:18:47;79.10;;;48.28;;
84862;SDS011;75117;43.224;76.776;2024-02-28T00:19:00;79.97;;;48.33;;
84862;SDS011;75117;43.224;76.776;2024-02-28T00:19:12;81.72;;;48.92;;
84862;SDS011;75117;43.224;76.776;2024-02-28T00:19:25;80.97;;;47.13;;
84862;SDS011;75117;43.224;76.776;2024-02-28T00:19:38;80.13;;;45.22;;
84862;SDS011;75117;43.224;76.776;2024-02-28T00:19:50;83.18;;;47.80;;
84862;SDS011;75117;43.224;76.776;2024-02-28T00:20:03;80.40;;;47.22;;
84862;SDS011;75117;43.224;76.776;2024-02-28T00:20:16;79.68;;;47.80;;
84862;SDS011;75117;43.224;76.776;2024-02-28T00:20:29;80.18;;;47.55;;
84862;SDS011;75117;43.224;76.776;2024-02-28T00:20:41;88.25;;;48.53;;
84862;SDS011;75117;43.224;76.776;2024-02-28T00:20:56;90.75;;;50.58;;
84862;SDS011;75117;43.224;76.776;2024-02-28T00:21:08;88.18;;;49.85;;
84862;SDS011;75117;43.224;76.776;2024-02-28T00:21:21;86.32;;;49.70;;
84862;SDS011;75117;43.224;76.776;2024-02-28T00:21:33;85.10;;;49.60;;
84862;SDS011;75117;43.224;76.776;2024-02-28T00:21:45;88.43;;;47.60;;
84862;SDS011;75117;43.224;76.776;2024-02-28T00:21:58;86.07;;;46.90;;
84862;SDS011;75117;43.224;76.776;2024-02-28T00:22:11;77.60;;;45.42;;
84862;SDS011;75117;43.224;76.776;2024-02-28T00:22:24;77.68;;;45.22;;
84862;SDS011;75117;43.224;76.776;2024-02-28T00:22:37;79.10;;;44.45;;
84862;SDS011;75117;43.224;76.776;2024-02-28T00:22:49;79.88;;;44.55;;
84862;SDS011;75117;43.224;76.776;2024-02-28T00:23:01;80.13;;;46.17;;
84862;SDS011;75117;43.224;76.776;2024-02-28T00:23:14;78.72;;;46.60;;
84862;SDS011;75117;43.224;76.776;2024-02-28T00:23:26;80.05;;;45.83;;
84862;SDS011;75117;43.224;76.776;2024-02-28T00:23:39;80.40;;;44.95;;
84862;SDS011;75117;43.224;76.776;2024-02-28T00:23:51;79.70;;;44.08;;
84862;SDS011;75117;43.224;76.776;2024-02-28T00:24:04;77.85;;;42.80;;
84862;SDS011;75117;43.224;76.776;2024-02-28T00:24:17;79.20;;;46.42;;
84862;SDS011;75117;43.224;76.776;2024-02-28T00:24:29;84.93;;;49.17;;
84862;SDS011;75117;43.224;76.776;2024-02-28T00:24:42;88.50;;;50.50;;
84862;SDS011;75117;43.224;76.776;2024-02-28T00:24:55;88.63;;;50.10;;
84862;SDS011;75117;43.224;76.776;2024-02-28T00:25:07;87.32;;;49.15;;
84862;SDS011;75117;43.224;76.776;2024-02-28T00:25:21;81.28;;;45.38;;
84862;SDS011;75117;43.224;76.776;2024-02-28T00:25:34;83.35;;;45.95;;
84862;SDS011;75117;43.224;76.776;2024-02-28T00:25:48;89.25;;;48.00;;
84862;SDS011;75117;43.224;76.776;2024-02-28T00:26:01;91.85;;;48.42;;
84862;SDS011;75117;43.224;76.776;2024-02-28T00:26:14;86.70;;;46.70;;
84862;SDS011;75117;43.224;76.776;2024-02-28T00:26:26;84.88;;;45.80;;
84862;SDS011;75117;43.224;76.776;2024-02-28T00:26:42;81.35;;;47.10;;
84862;SDS011;75117;43.224;76.776;2024-02-28T00:26:55;82.63;;;47.93;;
84862;SDS011;75117;43.224;76.776;2024-02-28T00:27:07;85.75;;;47.35;;
84862;SDS011;75117;43.224;76.776;2024-02-28T00:27:20;81.72;;;46.05;;
84862;SDS011;75117;43.224;76.776;2024-02-28T00:27:33;82.15;;;45.97;;
84862;SDS011;75117;43.224;76.776;2024-02-28T00:27:46;81.68;;;46.75;;
84862;SDS011;75117;43.224;76.776;2024-02-28T00:27:58;83.25;;;46.88;;
84862;SDS011;75117;43.224;76.776;2024-02-28T00:28:11;83.35;;;45.58;;
84862;SDS011;75117;43.224;76.776;2024-02-28T00:28:23;82.65;;;46.25;;
84862;SDS011;75117;43.224;76.776;2024-02-28T00:28:36;81.20;;;46.80;;
84862;SDS011;75117;43.224;76.776;2024-02-28T00:28:48;84.53;;;47.65;;
84862;SDS011;75117;43.224;76.776;2024-02-28T00:29:01;89.03;;;46.20;;
84862;SDS011;75117;43.224;76.776;2024-02-28T00:29:14;86.50;;;46.55;;
84862;SDS011;75117;43.224;76.776;2024-02-28T00:29:26;78.70;;;47.95;;
84862;SDS011;75117;43.224;76.776;2024-02-28T00:29:39;80.63;;;49.83;;
84862;SDS011;75117;43.224;76.776;2024-02-28T00:29:51;90.93;;;49.85;;
84862;SDS011;75117;43.224;76.776;2024-02-28T00:30:04;91.60;;;47.65;;
84862;SDS011;75117;43.224;76.776;2024-02-28T00:30:18;84.28;;;47.08;;
84862;SDS011;75117;43.224;76.776;2024-02-28T00:30:30;83.80;;;47.15;;
84862;SDS011;75117;43.224;76.776;2024-02-28T00:30:44;89.45;;;51.25;;
84862;SDS011;75117;43.224;76.776;2024-02-28T00:30:57;90.68;;;52.20;;
84862;SDS011;75117;43.224;76.776;2024-02-28T00:31:09;87.72;;;50.90;;
84862;SDS011;75117;43.224;76.776;2024-02-28T00:31:22;85.72;;;49.20;;
84862;SDS011;75117;43.224;76.776;2024-02-28T00:31:34;83.68;;;47.85;;
84862;SDS011;75117;43.224;76.776;2024-02-28T00:31:47;85.15;;;47.03;;
84862;SDS011;75117;43.224;76.776;2024-02-28T00:31:59;85.38;;;45.17;;
84862;SDS011;75117;43.224;76.776;2024-02-28T00:32:12;86.90;;;44.22;;
84862;SDS011;75117;43.224;76.776;2024-02-28T00:32:24;91.13;;;46.25;;
84862;SDS011;75117;43.224;76.776;2024-02-28T00:32:37;88.55;;;45.05;;
84862;SDS011;75117;43.224;76.776;2024-02-28T00:32:49;80.45;;;43.17;;
84862;SDS011;75117;43.224;76.776;2024-02-28T00:33:02;83.35;;;42.60;;
84862;SDS011;75117;43.224;76.776;2024-02-28T00:33:14;90.78;;;46.33;;
84862;SDS011;75117;43.224;76.776;2024-02-28T00:33:29;89.65;;;46.50;;
84862;SDS011;75117;43.224;76.776;2024-02-28T00:33:41;89.15;;;47.30;;
84862;SDS011;75117;43.224;76.776;2024-02-28T00:33:54;86.18;;;46.80;;
84862;SDS011;75117;43.224;76.776;2024-02-28T00:34:06;82.85;;;47.85;;
84862;SDS011;75117;43.224;76.776;2024-02-28T00:34:20;83.75;;;47.72;;
84862;SDS011;75117;43.224;76.776;2024-02-28T00:34:33;84.53;;;47.17;;
84862;SDS011;75117;43.224;76.776;2024-02-28T00:34:45;86.93;;;47.97;;
84862;SDS011;75117;43.224;76.776;2024-02-28T00:34:57;84.78;;;47.78;;
84862;SDS011;75117;43.224;76.776;2024-02-28T00:35:10;82.10;;;45.97;;
84862;SDS011;75117;43.224;76.776;2024-02-28T00:35:22;82.20;;;46.53;;
84862;SDS011;75117;43.224;76.776;2024-02-28T00:35:35;87.63;;;49.05;;
84862;SDS011;75117;43.224;76.776;2024-02-28T00:35:47;88.93;;;49.35;;
84862;SDS011;75117;43.224;76.776;2024-02-28T00:36:00;88.45;;;47.63;;
84862;SDS011;75117;43.224;76.776;2024-02-28T00:36:12;84.85;;;47.15;;
84862;SDS011;75117;43.224;76.776;2024-02-28T00:36:27;85.72;;;46.97;;
84862;SDS011;75117;43.224;76.776;2024-02-28T00:36:39;88.30;;;46.75;;
84862;SDS011;75117;43.224;76.776;2024-02-28T00:36:52;81.47;;;48.28;;
84862;SDS011;75117;43.224;76.776;2024-02-28T00:37:04;83.13;;;49.65;;
84862;SDS011;75117;43.224;76.776;2024-02-28T00:37:17;85.47;;;49.53;;
84862;SDS011;75117;43.224;76.776;2024-02-28T00:37:29;90.13;;;50.92;;
84862;SDS011;75117;43.224;76.776;2024-02-28T00:37:42;90.82;;;48.92;;
84862;SDS011;75117;43.224;76.776;2024-02-28T00:37:54;86.75;;;46.88;;
84862;SDS011;75117;43.224;76.776;2024-02-28T00:38:07;88.63;;;48.15;;
84862;SDS011;75117;43.224;76.776;2024-02-28T00:38:19;90.28;;;49.42;;
84862;SDS011;75117;43.224;76.776;2024-02-28T00:38:31;87.40;;;49.95;;
84862;SDS011;75117;43.224;76.776;2024-02-28T00:38:44;86.75;;;48.05;;
84862;SDS011;75117;43.224;76.776;2024-02-28T00:38:56;90.22;;;46.08;;
84862;SDS011;75117;43.224;76.776;2024-02-28T00:39:10;93.93;;;46.20;;
84862;SDS011;75117;43.224;76.776;2024-02-28T00:39:23;97.88;;;47.58;;
84862;SDS011;75117;43.224;76.776;2024-02-28T00:39:36;100.28;;;49.20;;
84862;SDS011;75117;43.224;76.776;2024-02-28T00:39:49;106.28;;;51.03;;
84862;SDS011;75117;43.224;76.776;2024-02-28T00:40:01;117.03;;;51.25;;
84862;SDS011;75117;43.224;76.776;2024-02-28T00:40:14;118.60;;;50.13;;
84862;SDS011;75117;43.224;76.776;2024-02-28T00:40:27;119.43;;;49.85;;
84862;SDS011;75117;43.224;76.776;2024-02-28T00:40:40;107.20;;;48.53;;
84862;SDS011;75117;43.224;76.776;2024-02-28T00:40:52;99.18;;;48.90;;
84862;SDS011;75117;43.224;76.776;2024-02-28T00:41:05;99.95;;;51.63;;
84862;SDS011;75117;43.224;76.776;2024-02-28T00:41:17;97.35;;;49.35;;
84862;SDS011;75117;43.224;76.776;2024-02-28T00:41:30;94.70;;;48.05;;
84862;SDS011;75117;43.224;76.776;2024-02-28T00:41:42;91.82;;;49.45;;
84862;SDS011;75117;43.224;76.776;2024-02-28T00:41:55;91.55;;;50.50;;
84862;SDS011;75117;43.224;76.776;2024-02-28T00:42:07;89.25;;;48.85;;
84862;SDS011;75117;43.224;76.776;2024-02-28T00:42:19;94.22;;;49.67;;
84862;SDS011;75117;43.224;76.776;2024-02-28T00:42:32;100.63;;;51.22;;
84862;SDS011;75117;43.224;76.776;2024-02-28T00:42:44;99.30;;;48.60;;
84862;SDS011;75117;43.224;76.776;2024-02-28T00:42:57;95.60;;;48.63;;
84862;SDS011;75117;43.224;76.776;2024-02-28T00:43:09;90.13;;;48.15;;
84862;SDS011;75117;43.224;76.776;2024-02-28T00:43:22;88.63;;;48.28;;
84862;SDS011;75117;43.224;76.776;2024-02-28T00:43:35;88.97;;;50.13;;
84862;SDS011;75117;43.224;76.776;2024-02-28T00:43:47;92.57;;;51.90;;
84862;SDS011;75117;43.224;76.776;2024-02-28T00:44:00;94.70;;;51.75;;
84862;SDS011;75117;43.224;76.776;2024-02-28T00:44:12;95.25;;;49.65;;
84862;SDS011;75117;43.224;76.776;2024-02-28T00:44:24;89.60;;;47.80;;
84862;SDS011;75117;43.224;76.776;2024-02-28T00:44:37;94.43;;;46.85;;
84862;SDS011;75117;43.224;76.776;2024-02-28T00:44:49;93.25;;;46.53;;
84862;SDS011;75117;43.224;76.776;2024-02-28T00:45:02;91.95;;;48.22;;
84862;SDS011;75117;43.224;76.776;2024-02-28T00:45:15;91.30;;;50.85;;
84862;SDS011;75117;43.224;76.776;2024-02-28T00:45:28;92.07;;;50.10;;
84862;SDS011;75117;43.224;76.776;2024-02-28T00:45:40;88.80;;;48.83;;
84862;SDS011;75117;43.224;76.776;2024-02-28T00:45:53;84.90;;;47.58;;
84862;SDS011;75117;43.224;76.776;2024-02-28T00:46:07;86.00;;;47.42;;
84862;SDS011;75117;43.224;76.776;2024-02-28T00:46:25;90.18;;;47.25;;
84862;SDS011;75117;43.224;76.776;2024-02-28T00:46:39;92.07;;;48.30;;
84862;SDS011;75117;43.224;76.776;2024-02-28T00:46:51;88.82;;;47.13;;
84862;SDS011;75117;43.224;76.776;2024-02-28T00:47:04;86.28;;;47.85;;
84862;SDS011;75117;43.224;76.776;2024-02-28T00:47:17;88.70;;;48.33;;
84862;SDS011;75117;43.224;76.776;2024-02-28T00:47:29;88.93;;;48.70;;
84862;SDS011;75117;43.224;76.776;2024-02-28T00:47:42;87.63;;;48.15;;
84862;SDS011;75117;43.224;76.776;2024-02-28T00:47:55;87.10;;;46.83;;
84862;SDS011;75117;43.224;76.776;2024-02-28T00:48:07;87.78;;;49.42;;
84862;SDS011;75117;43.224;76.776;2024-02-28T00:48:20;90.05;;;49.30;;
84862;SDS011;75117;43.224;76.776;2024-02-28T00:48:32;89.65;;;46.72;;
84862;SDS011;75117;43.224;76.776;2024-02-28T00:48:45;90.93;;;46.88;;
84862;SDS011;75117;43.224;76.776;2024-02-28T00:48:57;84.32;;;46.75;;
84862;SDS011;75117;43.224;76.776;2024-02-28T00:49:10;78.78;;;45.10;;
84862;SDS011;75117;43.224;76.776;2024-02-28T00:49:22;82.15;;;46.55;;
84862;SDS011;75117;43.224;76.776;2024-02-28T00:49:35;86.13;;;48.80;;
84862;SDS011;75117;43.224;76.776;2024-02-28T00:49:47;89.72;;;51.15;;
84862;SDS011;75117;43.224;76.776;2024-02-28T00:50:00;91.60;;;50.08;;
84862;SDS011;75117;43.224;76.776;2024-02-28T00:50:14;90.22;;;49.00;;
84862;SDS011;75117;43.224;76.776;2024-02-28T00:50:27;90.78;;;49.05;;
84862;SDS011;75117;43.224;76.776;2024-02-28T00:50:39;94.32;;;50.78;;
84862;SDS011;75117;43.224;76.776;2024-02-28T00:50:52;89.97;;;49.88;;
84862;SDS011;75117;43.224;76.776;2024-02-28T00:51:05;87.47;;;48.80;;
84862;SDS011;75117;43.224;76.776;2024-02-28T00:51:20;88.53;;;47.03;;
84862;SDS011;75117;43.224;76.776;2024-02-28T00:51:33;90.22;;;47.00;;
84862;SDS011;75117;43.224;76.776;2024-02-28T00:51:48;88.18;;;47.28;;
84862;SDS011;75117;43.224;76.776;2024-02-28T00:52:00;88.05;;;46.83;;
84862;SDS011;75117;43.224;76.776;2024-02-28T00:52:13;85.93;;;47.58;;
84862;SDS011;75117;43.224;76.776;2024-02-28T00:52:26;86.53;;;46.25;;
84862;SDS011;75117;43.224;76.776;2024-02-28T00:52:38;85.40;;;46.20;;
84862;SDS011;75117;43.224;76.776;2024-02-28T00:52:50;87.00;;;46.13;;
84862;SDS011;75117;43.224;76.776;2024-02-28T00:53:03;92.38;;;46.88;;
84862;SDS011;75117;43.224;76.776;2024-02-28T00:53:16;100.60;;;48.22;;
84862;SDS011;75117;43.224;76.776;2024-02-28T00:53:29;103.22;;;51.63;;
84862;SDS011;75117;43.224;76.776;2024-02-28T00:53:41;103.90;;;53.25;;
84862;SDS011;75117;43.224;76.776;2024-02-28T00:53:55;105.55;;;54.50;;
84862;SDS011;75117;43.224;76.776;2024-02-28T00:54:08;103.78;;;54.92;;
84862;SDS011;75117;43.224;76.776;2024-02-28T00:54:20;109.30;;;54.10;;
84862;SDS011;75117;43.224;76.776;2024-02-28T00:54:35;116.57;;;54.83;;
84862;SDS011;75117;43.224;76.776;2024-02-28T00:54:48;111.75;;;55.60;;
84862;SDS011;75117;43.224;76.776;2024-02-28T00:55:00;107.55;;;56.10;;
84862;SDS011;75117;43.224;76.776;2024-02-28T00:55:13;111.28;;;54.53;;
84862;SDS011;75117;43.224;76.776;2024-02-28T00:55:25;115.75;;;53.70;;
84862;SDS011;75117;43.224;76.776;2024-02-28T00:55:37;117.80;;;53.40;;
84862;SDS011;75117;43.224;76.776;2024-02-28T00:55:50;113.93;;;53.83;;
84862;SDS011;75117;43.224;76.776;2024-02-28T00:56:03;112.05;;;55.05;;
84862;SDS011;75117;43.224;76.776;2024-02-28T00:56:16;114.80;;;56.85;;
84862;SDS011;75117;43.224;76.776;2024-02-28T00:56:28;119.07;;;57.33;;
84862;SDS011;75117;43.224;76.776;2024-02-28T00:56:41;118.57;;;58.15;;
84862;SDS011;75117;43.224;76.776;2024-02-28T00:56:53;113.00;;;55.30;;
84862;SDS011;75117;43.224;76.776;2024-02-28T00:57:06;109.30;;;54.70;;
84862;SDS011;75117;43.224;76.776;2024-02-28T00:57:18;107.18;;;51.72;;
84862;SDS011;75117;43.224;76.776;2024-02-28T00:57:31;109.90;;;53.05;;
84862;SDS011;75117;43.224;76.776;2024-02-28T00:57:44;108.25;;;53.42;;
84862;SDS011;75117;43.224;76.776;2024-02-28T00:57:56;102.68;;;52.15;;
84862;SDS011;75117;43.224;76.776;2024-02-28T00:58:09;107.75;;;51.97;;
84862;SDS011;75117;43.224;76.776;2024-02-28T00:58:22;117.93;;;51.92;;
84862;SDS011;75117;43.224;76.776;2024-02-28T00:58:34;121.50;;;52.90;;
84862;SDS011;75117;43.224;76.776;2024-02-28T00:58:47;117.22;;;55.10;;
84862;SDS011;75117;43.224;76.776;2024-02-28T00:58:59;109.00;;;55.88;;
84862;SDS011;75117;43.224;76.776;2024-02-28T00:59:12;106.70;;;53.45;;
84862;SDS011;75117;43.224;76.776;2024-02-28T00:59:25;98.30;;;50.70;;
84862;SDS011;75117;43.224;76.776;2024-02-28T00:59:37;101.07;;;49.83;;
84862;SDS011;75117;43.224;76.776;2024-02-28T00:59:50;103.40;;;50.63;;
84862;SDS011;75117;43.224;76.776;2024-02-28T01:00:02;107.80;;;50.63;;
84862;SDS011;75117;43.224;76.776;2024-02-28T01:00:17;98.68;;;50.28;;
84862;SDS011;75117;43.224;76.776;2024-02-28T01:00:29;94.47;;;49.70;;
84862;SDS011;75117;43.224;76.776;2024-02-28T01:00:42;96.50;;;51.35;;
84862;SDS011;75117;43.224;76.776;2024-02-28T01:00:54;92.32;;;50.95;;
84862;SDS011;75117;43.224;76.776;2024-02-28T01:01:06;97.55;;;51.40;;
84862;SDS011;75117;43.224;76.776;2024-02-28T01:01:19;96.22;;;49.90;;
84862;SDS011;75117;43.224;76.776;2024-02-28T01:01:32;90.53;;;48.65;;
84862;SDS011;75117;43.224;76.776;2024-02-28T01:01:44;89.28;;;47.45;;
84862;SDS011;75117;43.224;76.776;2024-02-28T01:01:57;97.97;;;49.17;;
84862;SDS011;75117;43.224;76.776;2024-02-28T01:02:09;98.30;;;49.47;;
84862;SDS011;75117;43.224;76.776;2024-02-28T01:02:22;93.88;;;49.63;;
84862;SDS011;75117;43.224;76.776;2024-02-28T01:02:34;90.00;;;49.83;;
84862;SDS011;75117;43.224;76.776;2024-02-28T01:02:47;93.15;;;50.63;;
84862;SDS011;75117;43.224;76.776;2024-02-28T01:02:59;99.35;;;50.85;;
84862;SDS011;75117;43.224;76.776;2024-02-28T01:03:15;100.38;;;50.72;;
84862;SDS011;75117;43.224;76.776;2024-02-28T01:03:30;98.75;;;52.03;;
84862;SDS011;75117;43.224;76.776;2024-02-28T01:03:42;95.00;;;49.55;;
84862;SDS011;75117;43.224;76.776;2024-02-28T01:03:55;95.57;;;48.97;;
84862;SDS011;75117;43.224;76.776;2024-02-28T01:04:07;95.13;;;46.85;;
84862;SDS011;75117;43.224;76.776;2024-02-28T01:04:19;92.03;;;45.92;;
84862;SDS011;75117;43.224;76.776;2024-02-28T01:04:32;92.00;;;47.03;;
84862;SDS011;75117;43.224;76.776;2024-02-28T01:04:45;87.18;;;47.80;;
84862;SDS011;75117;43.224;76.776;2024-02-28T01:04:57;79.45;;;46.30;;
84862;SDS011;75117;43.224;76.776;2024-02-28T01:05:10;78.20;;;46.10;;
84862;SDS011;75117;43.224;76.776;2024-02-28T01:05:22;78.65;;;47.33;;
84862;SDS011;75117;43.224;76.776;2024-02-28T01:05:35;82.05;;;45.97;;
84862;SDS011;75117;43.224;76.776;2024-02-28T01:05:48;82.97;;;44.33;;
84862;SDS011;75117;43.224;76.776;2024-02-28T01:06:02;82.05;;;45.60;;
84862;SDS011;75117;43.224;76.776;2024-02-28T01:06:16;84.63;;;46.08;;
84862;SDS011;75117;43.224;76.776;2024-02-28T01:06:28;88.88;;;47.03;;
84862;SDS011;75117;43.224;76.776;2024-02-28T01:06:44;86.95;;;48.20;;
84862;SDS011;75117;43.224;76.776;2024-02-28T01:06:56;86.78;;;48.17;;
84862;SDS011;75117;43.224;76.776;2024-02-28T01:07:09;84.68;;;48.28;;
84862;SDS011;75117;43.224;76.776;2024-02-28T01:07:21;83.00;;;48.13;;
84862;SDS011;75117;43.224;76.776;2024-02-28T01:07:34;80.55;;;47.38;;
84862;SDS011;75117;43.224;76.776;2024-02-28T01:07:46;80.63;;;46.13;;
84862;SDS011;75117;43.224;76.776;2024-02-28T01:07:59;80.10;;;46.78;;
84862;SDS011;75117;43.224;76.776;2024-02-28T01:08:11;81.35;;;47.63;;
84862;SDS011;75117;43.224;76.776;2024-02-28T01:08:24;79.28;;;46.38;;
84862;SDS011;75117;43.224;76.776;2024-02-28T01:08:36;82.50;;;45.83;;
84862;SDS011;75117;43.224;76.776;2024-02-28T01:08:51;87.90;;;45.80;;
84862;SDS011;75117;43.224;76.776;2024-02-28T01:09:04;89.75;;;45.80;;
84862;SDS011;75117;43.224;76.776;2024-02-28T01:09:16;86.15;;;46.60;;
84862;SDS011;75117;43.224;76.776;2024-02-28T01:09:29;84.25;;;45.42;;
84862;SDS011;75117;43.224;76.776;2024-02-28T01:09:42;81.05;;;45.10;;
84862;SDS011;75117;43.224;76.776;2024-02-28T01:09:54;80.50;;;44.40;;
84862;SDS011;75117;43.224;76.776;2024-02-28T01:10:07;79.90;;;45.17;;
84862;SDS011;75117;43.224;76.776;2024-02-28T01:10:20;84.40;;;47.75;;
84862;SDS011;75117;43.224;76.776;2024-02-28T01:10:33;84.15;;;45.90;;
84862;SDS011;75117;43.224;76.776;2024-02-28T01:10:46;80.88;;;43.55;;
84862;SDS011;75117;43.224;76.776;2024-02-28T01:10:58;80.03;;;45.22;;
84862;SDS011;75117;43.224;76.776;2024-02-28T01:11:11;80.85;;;46.60;;
84862;SDS011;75117;43.224;76.776;2024-02-28T01:11:24;82.07;;;47.40;;
84862;SDS011;75117;43.224;76.776;2024-02-28T01:11:39;84.03;;;46.83;;
84862;SDS011;75117;43.224;76.776;2024-02-28T01:11:52;85.45;;;45.88;;
84862;SDS011;75117;43.224;76.776;2024-02-28T01:12:04;85.45;;;48.13;;
84862;SDS011;75117;43.224;76.776;2024-02-28T01:12:17;84.85;;;48.35;;
84862;SDS011;75117;43.224;76.776;2024-02-28T01:12:29;80.65;;;47.28;;
84862;SDS011;75117;43.224;76.776;2024-02-28T01:12:42;76.88;;;45.97;;
84862;SDS011;75117;43.224;76.776;2024-02-28T01:12:54;79.47;;;46.03;;
84862;SDS011;75117;43.224;76.776;2024-02-28T01:13:07;84.70;;;47.60;;
84862;SDS011;75117;43.224;76.776;2024-02-28T01:13:19;87.93;;;48.55;;
84862;SDS011;75117;43.224;76.776;2024-02-28T01:13:32;87.32;;;47.38;;
84862;SDS011;75117;43.224;76.776;2024-02-28T01:13:45;82.28;;;45.55;;
84862;SDS011;75117;43.224;76.776;2024-02-28T01:13:57;77.30;;;44.67;;